createdAt,value
2022-09-28T00:00:08.861Z,20.40
2022-09-28T00:01:08.855Z,20.80
2022-09-28T00:02:08.968Z,23.20
2022-09-28T00:03:08.945Z,22.20
2022-09-28T00:04:08.817Z,25.30
2022-09-28T00:05:08.808Z,22.80
2022-09-28T00:06:08.806Z,20.00
2022-09-28T00:07:08.782Z,22.00
2022-09-28T00:08:08.773Z,18.00
2022-09-28T00:09:08.760Z,21.40
2022-09-28T00:10:08.751Z,17.30
2022-09-28T00:11:08.767Z,22.50
2022-09-28T00:12:08.727Z,19.00
2022-09-28T00:13:08.716Z,20.80
2022-09-28T00:14:08.708Z,21.30
2022-09-28T00:15:08.698Z,22.30
2022-09-28T00:16:08.743Z,19.00
2022-09-28T00:17:08.671Z,24.30
2022-09-28T00:18:08.662Z,20.60
2022-09-28T00:19:08.649Z,20.00
2022-09-28T00:20:08.639Z,21.90
2022-09-28T00:21:08.626Z,18.50
2022-09-28T00:22:08.618Z,18.20
2022-09-28T00:23:08.606Z,20.50
2022-09-28T00:24:08.598Z,20.90
2022-09-28T00:25:08.584Z,35.70
2022-09-28T00:26:08.572Z,30.60
2022-09-28T00:27:08.585Z,25.00
2022-09-28T00:28:08.550Z,21.70
2022-09-28T00:29:08.542Z,22.30
2022-09-28T00:30:08.530Z,19.50
2022-09-28T00:31:08.598Z,18.50
2022-09-28T00:32:08.505Z,20.30
2022-09-28T00:33:08.494Z,21.50
2022-09-28T00:34:08.484Z,25.40
2022-09-28T00:35:08.470Z,25.40
2022-09-28T00:36:08.463Z,21.60
2022-09-28T00:37:08.448Z,23.60
2022-09-28T00:38:08.444Z,22.70
2022-09-28T00:39:08.428Z,24.00
2022-09-28T00:40:08.419Z,25.90
2022-09-28T00:41:08.405Z,21.20
2022-09-28T00:42:08.397Z,20.30
2022-09-28T00:43:08.407Z,24.60
2022-09-28T00:44:08.371Z,20.50
2022-09-28T00:45:08.360Z,29.60
2022-09-28T00:46:08.409Z,20.40
2022-09-28T00:47:08.341Z,21.20
2022-09-28T00:48:08.330Z,29.60
2022-09-28T00:49:08.317Z,24.10
2022-09-28T00:50:08.306Z,23.30
2022-09-28T00:51:08.294Z,23.60
2022-09-28T00:52:08.289Z,21.10
2022-09-28T00:53:08.273Z,24.60
2022-09-28T00:54:08.263Z,20.30
2022-09-28T00:55:08.249Z,21.50
2022-09-28T00:56:08.240Z,18.40
2022-09-28T00:57:08.230Z,19.80
2022-09-28T00:58:08.218Z,21.40
2022-09-28T00:59:08.231Z,22.10
2022-09-28T01:00:08.195Z,20.80
2022-09-28T01:01:08.220Z,33.90
2022-09-28T01:02:08.293Z,22.50
2022-09-28T01:03:08.161Z,21.80
2022-09-28T01:04:08.160Z,17.40
2022-09-28T01:05:08.141Z,20.00
2022-09-28T01:06:08.133Z,24.90
2022-09-28T01:07:08.118Z,23.20
2022-09-28T01:08:08.108Z,18.70
2022-09-28T01:09:08.100Z,20.50
2022-09-28T01:10:08.093Z,28.00
2022-09-28T01:11:08.075Z,21.10
2022-09-28T01:12:08.065Z,21.10
2022-09-28T01:13:08.053Z,24.50
2022-09-28T01:14:08.042Z,22.80
2022-09-28T01:15:08.055Z,24.50
2022-09-28T01:16:08.238Z,36.80
2022-09-28T01:17:08.008Z,26.60
2022-09-28T01:18:07.999Z,34.10
2022-09-28T01:19:07.987Z,27.50
2022-09-28T01:20:07.977Z,23.30
2022-09-28T01:21:07.963Z,27.30
2022-09-28T01:22:07.955Z,20.90
2022-09-28T01:23:07.941Z,18.50
2022-09-28T01:24:07.934Z,26.70
2022-09-28T01:25:07.923Z,24.30
2022-09-28T01:26:07.913Z,26.50
2022-09-28T01:27:07.905Z,30.30
2022-09-28T01:28:07.888Z,28.30
2022-09-28T01:29:07.877Z,20.80
2022-09-28T01:30:07.868Z,23.00
2022-09-28T01:31:07.924Z,34.00
2022-09-28T01:32:07.845Z,27.80
2022-09-28T01:33:07.833Z,22.20
2022-09-28T01:34:07.825Z,26.90
2022-09-28T01:35:07.811Z,19.00
2022-09-28T01:36:07.804Z,24.80
2022-09-28T01:37:07.792Z,34.20
2022-09-28T01:38:07.784Z,46.40
2022-09-28T01:39:07.767Z,33.40
2022-09-28T01:40:07.758Z,24.80
2022-09-28T01:41:07.751Z,50.90
2022-09-28T01:42:07.738Z,27.50
2022-09-28T01:43:07.726Z,21.80
2022-09-28T01:44:07.715Z,25.20
2022-09-28T01:45:07.703Z,21.20
2022-09-28T01:46:07.734Z,29.00
2022-09-28T01:47:07.705Z,44.70
2022-09-28T01:48:07.670Z,33.60
2022-09-28T01:49:07.660Z,23.90
2022-09-28T01:50:07.648Z,32.80
2022-09-28T01:51:07.637Z,25.80
2022-09-28T01:52:07.628Z,50.80
2022-09-28T01:53:07.614Z,43.80
2022-09-28T01:54:07.609Z,32.50
2022-09-28T01:55:07.593Z,35.80
2022-09-28T01:56:07.583Z,23.70
2022-09-28T01:57:07.572Z,22.40
2022-09-28T01:58:07.562Z,24.30
2022-09-28T01:59:07.549Z,20.90
2022-09-28T02:00:07.539Z,25.50
2022-09-28T02:01:07.588Z,25.10
2022-09-28T02:02:07.629Z,50.20
2022-09-28T02:03:07.526Z,43.50
2022-09-28T02:04:07.495Z,27.30
2022-09-28T02:05:07.485Z,29.90
2022-09-28T02:06:07.475Z,41.50
2022-09-28T02:07:07.461Z,43.50
2022-09-28T02:08:07.451Z,29.60
2022-09-28T02:09:07.439Z,24.80
2022-09-28T02:10:07.433Z,29.90
2022-09-28T02:11:07.419Z,28.10
2022-09-28T02:12:07.409Z,28.80
2022-09-28T02:13:07.395Z,25.60
2022-09-28T02:14:07.393Z,33.10
2022-09-28T02:15:07.376Z,34.90
2022-09-28T02:16:07.415Z,40.40
2022-09-28T02:17:07.351Z,29.50
2022-09-28T02:18:07.357Z,41.30
2022-09-28T02:19:07.355Z,33.70
2022-09-28T02:20:07.321Z,29.60
2022-09-28T02:21:07.307Z,31.20
2022-09-28T02:22:07.301Z,31.20
2022-09-28T02:23:07.285Z,35.50
2022-09-28T02:24:07.280Z,28.00
2022-09-28T02:25:07.264Z,34.20
2022-09-28T02:26:07.259Z,30.50
2022-09-28T02:27:07.243Z,28.60
2022-09-28T02:28:07.234Z,31.70
2022-09-28T02:29:07.221Z,40.80
2022-09-28T02:30:07.216Z,35.50
2022-09-28T02:31:07.247Z,37.60
2022-09-28T02:32:07.208Z,42.30
2022-09-28T02:33:07.176Z,37.30
2022-09-28T02:34:07.167Z,35.00
2022-09-28T02:35:07.176Z,38.20
2022-09-28T02:36:07.144Z,35.80
2022-09-28T02:37:07.133Z,30.80
2022-09-28T02:38:07.120Z,27.00
2022-09-28T02:39:07.108Z,33.90
2022-09-28T02:40:07.099Z,30.00
2022-09-28T02:41:07.094Z,37.00
2022-09-28T02:42:07.078Z,32.10
2022-09-28T02:43:07.066Z,35.10
2022-09-28T02:44:07.058Z,36.10
2022-09-28T02:45:07.043Z,32.60
2022-09-28T02:46:07.091Z,30.70
2022-09-28T02:47:07.023Z,31.80
2022-09-28T02:48:07.013Z,30.50
2022-09-28T02:49:20.899Z,30.10
2022-09-28T02:50:08.013Z,31.10
2022-09-28T02:51:07.001Z,35.10
2022-09-28T02:52:06.969Z,30.20
2022-09-28T02:53:06.956Z,31.30
2022-09-28T02:54:06.952Z,32.10
2022-09-28T02:55:06.940Z,38.10
2022-09-28T02:56:06.925Z,31.70
2022-09-28T02:57:06.918Z,38.70
2022-09-28T02:58:06.911Z,37.70
2022-09-28T02:59:06.904Z,28.70
2022-09-28T03:00:06.888Z,35.90
2022-09-28T03:01:06.931Z,37.70
2022-09-28T03:02:06.939Z,38.50
2022-09-28T03:03:06.851Z,49.10
2022-09-28T03:04:06.843Z,40.50
2022-09-28T03:05:06.829Z,33.50
2022-09-28T03:06:06.821Z,34.70
2022-09-28T03:07:06.828Z,33.20
2022-09-28T03:08:06.797Z,36.90
2022-09-28T03:09:06.784Z,31.50
2022-09-28T03:10:06.783Z,32.80
2022-09-28T03:11:06.760Z,31.80
2022-09-28T03:12:06.750Z,30.70
2022-09-28T03:13:06.738Z,41.10
2022-09-28T03:14:06.729Z,35.20
2022-09-28T03:15:06.718Z,30.90
2022-09-28T03:16:06.765Z,32.50
2022-09-28T03:17:06.694Z,38.70
2022-09-28T03:18:06.689Z,38.90
2022-09-28T03:19:06.672Z,37.10
2022-09-28T03:20:06.662Z,41.60
2022-09-28T03:21:06.649Z,40.20
2022-09-28T03:22:06.641Z,42.30
2022-09-28T03:23:23.858Z,38.80
2022-09-28T03:24:07.642Z,35.70
2022-09-28T03:25:06.612Z,40.80
2022-09-28T03:26:06.596Z,38.00
2022-09-28T03:27:06.584Z,38.60
2022-09-28T03:28:06.573Z,54.70
2022-09-28T03:29:06.561Z,47.60
2022-09-28T03:30:06.555Z,40.90
2022-09-28T03:31:06.590Z,42.60
2022-09-28T03:32:06.543Z,44.70
2022-09-28T03:33:06.522Z,45.40
2022-09-28T03:34:06.510Z,41.60
2022-09-28T03:35:06.494Z,38.30
2022-09-28T03:36:06.487Z,32.40
2022-09-28T03:37:06.472Z,35.70
2022-09-28T03:38:06.469Z,44.60
2022-09-28T03:39:06.475Z,38.90
2022-09-28T03:40:06.439Z,41.00
2022-09-28T03:41:06.426Z,36.20
2022-09-28T03:42:06.426Z,38.80
2022-09-28T03:43:06.406Z,37.50
2022-09-28T03:44:06.396Z,27.50
2022-09-28T03:45:06.385Z,29.70
2022-09-28T03:46:06.446Z,32.30
2022-09-28T03:47:06.361Z,29.20
2022-09-28T03:48:06.365Z,34.90
2022-09-28T03:49:06.349Z,31.70
2022-09-28T03:50:06.328Z,35.90
2022-09-28T03:51:06.317Z,33.30
2022-09-28T03:52:06.312Z,32.30
2022-09-28T03:53:06.298Z,34.20
2022-09-28T03:54:06.284Z,37.40
2022-09-28T03:55:06.295Z,35.40
2022-09-28T03:56:06.261Z,43.50
2022-09-28T03:57:06.251Z,32.60
2022-09-28T03:58:06.242Z,32.40
2022-09-28T03:59:06.231Z,36.60
2022-09-28T04:00:06.228Z,42.70
2022-09-28T04:01:06.286Z,34.60
2022-09-28T04:02:06.289Z,39.50
2022-09-28T04:03:06.223Z,39.70
2022-09-28T04:04:06.174Z,41.00
2022-09-28T04:05:06.164Z,35.40
2022-09-28T04:06:06.153Z,37.60
2022-09-28T04:07:06.142Z,35.70
2022-09-28T04:08:06.133Z,36.50
2022-09-28T04:09:06.117Z,35.10
2022-09-28T04:10:06.106Z,40.20
2022-09-28T04:11:06.117Z,40.30
2022-09-28T04:12:06.087Z,39.90
2022-09-28T04:13:06.071Z,44.00
2022-09-28T04:14:06.064Z,43.90
2022-09-28T04:15:06.050Z,46.70
2022-09-28T04:16:06.083Z,37.60
2022-09-28T04:17:06.028Z,47.30
2022-09-28T04:18:06.020Z,40.10
2022-09-28T04:19:06.002Z,40.30
2022-09-28T04:20:05.995Z,51.10
2022-09-28T04:21:05.983Z,35.90
2022-09-28T04:22:05.976Z,38.80
2022-09-28T04:23:05.963Z,40.70
2022-09-28T04:24:05.963Z,36.90
2022-09-28T04:25:05.938Z,44.00
2022-09-28T04:26:05.924Z,36.30
2022-09-28T04:27:05.941Z,38.60
2022-09-28T04:28:05.925Z,39.80
2022-09-28T04:29:06.946Z,46.20
2022-09-28T04:30:05.898Z,42.40
2022-09-28T04:31:05.874Z,40.10
2022-09-28T04:32:05.946Z,49.50
2022-09-28T04:33:05.853Z,52.10
2022-09-28T04:34:05.863Z,43.70
2022-09-28T04:35:05.828Z,63.10
2022-09-28T04:36:05.826Z,42.60
2022-09-28T04:37:05.809Z,46.40
2022-09-28T04:38:05.796Z,42.90
2022-09-28T04:39:05.785Z,42.10
2022-09-28T04:40:05.769Z,40.60
2022-09-28T04:41:05.761Z,52.50
2022-09-28T04:42:05.749Z,47.80
2022-09-28T04:43:05.763Z,39.80
2022-09-28T04:44:05.726Z,38.00
2022-09-28T04:45:05.715Z,44.70
2022-09-28T04:46:05.834Z,36.30
2022-09-28T04:47:05.695Z,36.50
2022-09-28T04:48:05.687Z,42.10
2022-09-28T04:49:05.758Z,45.50
2022-09-28T04:50:05.679Z,54.00
2022-09-28T04:51:05.652Z,40.90
2022-09-28T04:52:05.639Z,42.40
2022-09-28T04:53:05.627Z,51.10
2022-09-28T04:54:05.613Z,67.90
2022-09-28T04:55:05.603Z,51.80
2022-09-28T04:56:05.590Z,39.30
2022-09-28T04:57:05.580Z,47.70
2022-09-28T04:58:05.568Z,45.20
2022-09-28T04:59:05.582Z,46.20
2022-09-28T05:00:05.551Z,51.40
2022-09-28T05:01:05.613Z,62.40
2022-09-28T05:02:05.583Z,52.40
2022-09-28T05:03:05.513Z,51.30
2022-09-28T05:04:05.501Z,47.10
2022-09-28T05:05:05.493Z,52.00
2022-09-28T05:06:05.483Z,62.00
2022-09-28T05:07:05.468Z,59.70
2022-09-28T05:08:05.456Z,49.40
2022-09-28T05:09:05.445Z,48.80
2022-09-28T05:10:05.433Z,43.50
2022-09-28T05:11:05.422Z,46.00
2022-09-28T05:12:05.518Z,48.60
2022-09-28T05:13:05.399Z,59.00
2022-09-28T05:14:05.388Z,50.60
2022-09-28T05:15:05.408Z,48.80
2022-09-28T05:16:05.810Z,52.50
2022-09-28T05:17:05.357Z,57.10
2022-09-28T05:18:05.346Z,61.30
2022-09-28T05:19:05.352Z,61.40
2022-09-28T05:20:05.322Z,55.40
2022-09-28T05:21:05.312Z,71.90
2022-09-28T05:22:05.303Z,56.10
2022-09-28T05:23:05.290Z,61.80
2022-09-28T05:24:05.275Z,59.20
2022-09-28T05:25:05.267Z,66.50
2022-09-28T05:26:05.255Z,71.70
2022-09-28T05:27:05.242Z,66.00
2022-09-28T05:28:05.231Z,77.00
2022-09-28T05:29:05.246Z,88.30
2022-09-28T05:30:05.206Z,80.50
2022-09-28T05:31:05.221Z,69.40
2022-09-28T05:32:05.298Z,62.90
2022-09-28T05:33:05.180Z,77.00
2022-09-28T05:34:05.165Z,98.50
2022-09-28T05:35:05.151Z,87.50
2022-09-28T05:36:05.145Z,113.10
2022-09-28T05:37:05.135Z,86.00
2022-09-28T05:38:05.121Z,104.70
2022-09-28T05:39:05.115Z,122.60
2022-09-28T05:40:05.094Z,66.10
2022-09-28T05:41:06.752Z,119.90
2022-09-28T05:42:05.119Z,70.70
2022-09-28T05:43:05.079Z,73.00
2022-09-28T05:44:05.080Z,61.20
2022-09-28T05:45:05.044Z,68.60
2022-09-28T05:46:05.164Z,118.80
2022-09-28T05:47:05.044Z,73.90
2022-09-28T05:48:05.004Z,78.90
2022-09-28T05:49:05.087Z,80.50
2022-09-28T05:50:05.023Z,68.90
2022-09-28T05:51:05.063Z,98.70
2022-09-28T05:52:05.028Z,74.30
2022-09-28T05:53:05.064Z,69.70
2022-09-28T05:54:06.317Z,64.60
2022-09-28T05:55:05.089Z,60.50
2022-09-28T05:56:05.046Z,79.90
2022-09-28T05:57:04.924Z,66.80
2022-09-28T05:58:04.895Z,62.60
2022-09-28T05:59:04.887Z,57.60
2022-09-28T06:00:04.900Z,59.60
2022-09-28T06:01:04.937Z,51.00
2022-09-28T06:02:04.937Z,49.00
2022-09-28T06:03:08.704Z,60.50
2022-09-28T06:04:04.830Z,53.10
2022-09-28T06:05:04.820Z,53.00
2022-09-28T06:06:04.808Z,84.60
2022-09-28T06:07:04.800Z,50.60
2022-09-28T06:08:04.790Z,45.80
2022-09-28T06:09:04.779Z,45.70
2022-09-28T06:10:04.763Z,39.70
2022-09-28T06:11:04.756Z,46.70
2022-09-28T06:12:04.744Z,43.30
2022-09-28T06:13:04.736Z,36.20
2022-09-28T06:14:04.889Z,41.20
2022-09-28T06:15:04.741Z,58.40
2022-09-28T06:16:04.703Z,43.90
2022-09-28T06:17:04.742Z,43.70
2022-09-28T06:18:04.683Z,47.50
2022-09-28T06:19:04.690Z,62.60
2022-09-28T06:20:04.653Z,38.10
2022-09-28T06:21:04.646Z,51.70
2022-09-28T06:22:04.635Z,49.20
2022-09-28T06:23:04.624Z,46.50
2022-09-28T06:24:04.607Z,47.10
2022-09-28T06:25:04.656Z,32.30
2022-09-28T06:26:04.590Z,37.30
2022-09-28T06:27:04.578Z,34.50
2022-09-28T06:28:04.601Z,46.00
2022-09-28T06:29:04.585Z,58.40
2022-09-28T06:30:04.545Z,32.60
2022-09-28T06:31:04.610Z,38.60
2022-09-28T06:32:04.521Z,40.60
2022-09-28T06:33:04.513Z,56.70
2022-09-28T06:34:04.503Z,39.30
2022-09-28T06:35:04.514Z,43.40
2022-09-28T06:36:04.478Z,50.10
2022-09-28T06:37:04.471Z,43.30
2022-09-28T06:38:04.458Z,32.30
2022-09-28T06:39:04.448Z,35.00
2022-09-28T06:40:04.442Z,38.30
2022-09-28T06:41:05.072Z,28.50
2022-09-28T06:42:04.444Z,27.00
2022-09-28T06:43:04.433Z,32.30
2022-09-28T06:44:04.391Z,33.20
2022-09-28T06:45:04.382Z,34.40
2022-09-28T06:46:04.439Z,36.10
2022-09-28T06:47:04.357Z,57.20
2022-09-28T06:48:04.343Z,50.40
2022-09-28T06:49:04.336Z,40.30
2022-09-28T06:50:04.325Z,41.00
2022-09-28T06:51:04.339Z,35.00
2022-09-28T06:52:04.303Z,33.80
2022-09-28T06:53:04.347Z,43.40
2022-09-28T06:54:04.297Z,69.30
2022-09-28T06:55:04.269Z,47.30
2022-09-28T06:56:04.264Z,34.30
2022-09-28T06:57:04.247Z,36.70
2022-09-28T06:58:04.234Z,30.70
2022-09-28T06:59:04.228Z,32.90
2022-09-28T07:00:04.217Z,37.00
2022-09-28T07:01:04.326Z,32.50
2022-09-28T07:02:04.273Z,47.30
2022-09-28T07:03:04.185Z,39.70
2022-09-28T07:04:04.221Z,29.60
2022-09-28T07:05:04.195Z,30.50
2022-09-28T07:06:04.147Z,32.90
2022-09-28T07:07:04.162Z,38.80
2022-09-28T07:08:04.125Z,37.10
2022-09-28T07:09:23.909Z,33.80
2022-09-28T07:10:05.185Z,28.70
2022-09-28T07:11:04.092Z,41.60
2022-09-28T07:12:04.083Z,32.90
2022-09-28T07:13:04.077Z,30.50
2022-09-28T07:14:04.114Z,32.00
2022-09-28T07:15:04.076Z,38.30
2022-09-28T07:16:04.043Z,34.40
2022-09-28T07:17:14.042Z,47.20
2022-09-28T07:18:05.079Z,40.50
2022-09-28T07:19:04.018Z,30.30
2022-09-28T07:20:15.486Z,37.30
2022-09-28T07:21:05.013Z,33.00
2022-09-28T07:22:05.555Z,32.50
2022-09-28T07:23:16.063Z,34.40
2022-09-28T07:24:04.975Z,29.70
2022-09-28T07:25:03.941Z,44.40
2022-09-28T07:26:05.896Z,38.60
2022-09-28T07:27:03.919Z,39.60
2022-09-28T07:28:03.905Z,35.90
2022-09-28T07:29:03.894Z,33.40
2022-09-28T07:30:03.886Z,39.70
2022-09-28T07:31:03.987Z,30.50
2022-09-28T07:32:03.910Z,34.80
2022-09-28T07:33:03.849Z,26.80
2022-09-28T07:34:03.837Z,30.60
2022-09-28T07:35:03.827Z,33.70
2022-09-28T07:36:03.815Z,24.50
2022-09-28T07:37:03.804Z,35.20
2022-09-28T07:38:03.790Z,23.90
2022-09-28T07:39:03.836Z,26.50
2022-09-28T07:40:03.768Z,39.70
2022-09-28T07:41:03.814Z,33.40
2022-09-28T07:42:03.773Z,33.40
2022-09-28T07:43:03.757Z,32.30
2022-09-28T07:44:03.725Z,33.30
2022-09-28T07:45:03.716Z,40.30
2022-09-28T07:46:03.807Z,34.90
2022-09-28T07:47:03.694Z,29.70
2022-09-28T07:48:03.778Z,25.30
2022-09-28T07:49:05.763Z,31.30
2022-09-28T07:50:03.659Z,33.70
2022-09-28T07:51:03.649Z,24.50
2022-09-28T07:52:03.642Z,26.70
2022-09-28T07:53:03.634Z,31.40
2022-09-28T07:54:03.613Z,28.10
2022-09-28T07:55:07.035Z,31.50
2022-09-28T07:56:03.613Z,24.80
2022-09-28T07:57:03.577Z,25.10
2022-09-28T07:58:03.568Z,40.10
2022-09-28T07:59:03.559Z,28.90
2022-09-28T08:00:03.546Z,27.10
2022-09-28T08:01:03.614Z,26.50
2022-09-28T08:02:03.606Z,26.60
2022-09-28T08:03:03.515Z,26.50
2022-09-28T08:04:03.501Z,25.60
2022-09-28T08:05:03.497Z,25.20
2022-09-28T08:06:03.490Z,30.00
2022-09-28T08:07:03.476Z,25.40
2022-09-28T08:08:03.508Z,28.10
2022-09-28T08:09:03.466Z,34.70
2022-09-28T08:10:03.440Z,24.50
2022-09-28T08:11:03.592Z,23.90
2022-09-28T08:12:03.415Z,24.50
2022-09-28T08:13:04.771Z,23.00
2022-09-28T08:14:03.391Z,25.40
2022-09-28T08:15:03.382Z,24.60
2022-09-28T08:16:03.374Z,26.20
2022-09-28T08:17:03.413Z,25.40
2022-09-28T08:18:03.351Z,23.80
2022-09-28T08:19:03.345Z,25.90
2022-09-28T08:20:03.329Z,24.00
2022-09-28T08:21:03.340Z,24.30
2022-09-28T08:22:03.314Z,27.60
2022-09-28T08:23:03.325Z,23.40
2022-09-28T08:24:03.341Z,21.40
2022-09-28T08:25:03.328Z,21.50
2022-09-28T08:26:03.294Z,22.70
2022-09-28T08:27:03.274Z,26.50
2022-09-28T08:28:03.239Z,23.20
2022-09-28T08:29:03.227Z,31.00
2022-09-28T08:30:03.217Z,23.70
2022-09-28T08:31:03.370Z,21.60
2022-09-28T08:32:03.195Z,25.60
2022-09-28T08:33:03.184Z,25.20
2022-09-28T08:34:03.174Z,26.00
2022-09-28T08:35:03.163Z,26.60
2022-09-28T08:36:03.153Z,24.00
2022-09-28T08:37:03.140Z,26.20
2022-09-28T08:38:03.130Z,33.00
2022-09-28T08:39:03.121Z,25.20
2022-09-28T08:40:03.109Z,19.60
2022-09-28T08:41:03.313Z,25.00
2022-09-28T08:42:03.337Z,24.80
2022-09-28T08:43:03.103Z,25.80
2022-09-28T08:44:03.061Z,20.90
2022-09-28T08:45:03.050Z,21.40
2022-09-28T08:46:03.104Z,26.60
2022-09-28T08:47:03.028Z,26.20
2022-09-28T08:48:03.019Z,22.90
2022-09-28T08:49:26.410Z,21.60
2022-09-28T08:50:04.086Z,21.80
2022-09-28T08:51:02.992Z,21.50
2022-09-28T08:52:02.979Z,18.60
2022-09-28T08:53:02.962Z,21.60
2022-09-28T08:54:03.151Z,19.80
2022-09-28T08:55:03.025Z,18.40
2022-09-28T08:56:03.176Z,22.20
2022-09-28T08:57:03.210Z,20.00
2022-09-28T08:58:02.915Z,21.40
2022-09-28T08:59:02.923Z,18.50
2022-09-28T09:00:02.894Z,17.20
2022-09-28T09:01:02.937Z,17.60
2022-09-28T09:02:03.005Z,16.30
2022-09-28T09:03:02.853Z,17.10
2022-09-28T09:04:02.844Z,17.00
2022-09-28T09:05:02.842Z,15.80
2022-09-28T09:06:02.819Z,18.70
2022-09-28T09:07:02.809Z,16.50
2022-09-28T09:08:02.799Z,14.70
2022-09-28T09:09:02.787Z,16.80
2022-09-28T09:10:02.856Z,15.70
2022-09-28T09:11:03.018Z,16.30
2022-09-28T09:12:03.045Z,15.50
2022-09-28T09:13:02.753Z,17.80
2022-09-28T09:14:02.729Z,15.30
2022-09-28T09:15:02.775Z,20.90
2022-09-28T09:16:02.719Z,19.30
2022-09-28T09:17:02.749Z,18.80
2022-09-28T09:18:02.689Z,20.90
2022-09-28T09:19:02.681Z,20.50
2022-09-28T09:20:02.676Z,20.40
2022-09-28T09:21:02.656Z,21.00
2022-09-28T09:22:02.645Z,17.80
2022-09-28T09:23:02.788Z,19.50
2022-09-28T09:24:02.878Z,17.80
2022-09-28T09:25:02.620Z,18.50
2022-09-28T09:26:02.609Z,18.40
2022-09-28T09:27:02.603Z,19.40
2022-09-28T09:28:02.655Z,21.80
2022-09-28T09:29:02.662Z,17.90
2022-09-28T09:30:02.675Z,19.00
2022-09-28T09:31:02.718Z,15.00
2022-09-28T09:32:02.741Z,16.10
2022-09-28T09:33:02.785Z,15.80
2022-09-28T09:34:02.823Z,14.40
2022-09-28T09:35:02.731Z,16.00
2022-09-28T09:36:02.502Z,14.80
2022-09-28T09:37:02.512Z,16.20
2022-09-28T09:38:02.490Z,13.70
2022-09-28T09:39:02.459Z,15.10
2022-09-28T09:40:02.445Z,17.00
2022-09-28T09:41:02.565Z,16.80
2022-09-28T09:42:02.435Z,18.00
2022-09-28T09:43:02.410Z,16.40
2022-09-28T09:44:02.403Z,16.20
2022-09-28T09:45:02.392Z,15.00
2022-09-28T09:46:02.460Z,16.00
2022-09-28T09:47:02.997Z,18.50
2022-09-28T09:48:02.381Z,15.60
2022-09-28T09:49:02.367Z,15.10
2022-09-28T09:50:05.455Z,14.40
2022-09-28T09:51:02.325Z,17.10
2022-09-28T09:52:02.332Z,15.40
2022-09-28T09:53:02.309Z,18.30
2022-09-28T09:54:02.294Z,17.30
2022-09-28T09:55:02.282Z,16.10
2022-09-28T09:56:02.273Z,16.50
2022-09-28T09:57:02.262Z,15.80
2022-09-28T09:58:02.254Z,13.20
2022-09-28T09:59:02.280Z,12.10
2022-09-28T10:00:02.268Z,13.90
2022-09-28T10:01:02.240Z,12.50
2022-09-28T10:02:02.271Z,14.00
2022-09-28T10:03:02.219Z,13.60
2022-09-28T10:04:02.184Z,13.10
2022-09-28T10:05:02.174Z,15.00
2022-09-28T10:06:02.166Z,11.70
2022-09-28T10:07:02.152Z,17.30
2022-09-28T10:08:02.143Z,16.10
2022-09-28T10:09:02.128Z,12.50
2022-09-28T10:10:02.115Z,15.90
2022-09-28T10:11:02.130Z,15.70
2022-09-28T10:12:02.126Z,15.30
2022-09-28T10:13:02.087Z,14.60
2022-09-28T10:14:02.084Z,12.60
2022-09-28T10:15:02.065Z,14.20
2022-09-28T10:16:02.051Z,14.50
2022-09-28T10:17:02.102Z,14.60
2022-09-28T10:18:02.027Z,16.10
2022-09-28T10:19:02.040Z,14.60
2022-09-28T10:20:02.006Z,14.50
2022-09-28T10:21:01.994Z,13.40
2022-09-28T10:22:01.985Z,14.60
2022-09-28T10:23:01.971Z,13.00
2022-09-28T10:24:02.027Z,12.90
2022-09-28T10:25:01.980Z,12.50
2022-09-28T10:26:01.942Z,13.60
2022-09-28T10:27:01.928Z,13.90
2022-09-28T10:28:01.928Z,10.80
2022-09-28T10:29:01.908Z,12.50
2022-09-28T10:30:01.897Z,11.70
2022-09-28T10:31:02.035Z,11.30
2022-09-28T10:32:01.876Z,11.20
2022-09-28T10:33:01.866Z,12.00
2022-09-28T10:34:01.854Z,10.80
2022-09-28T10:35:01.868Z,11.50
2022-09-28T10:36:01.841Z,11.50
2022-09-28T10:37:01.872Z,9.90
2022-09-28T10:38:01.833Z,10.90
2022-09-28T10:39:01.801Z,10.30
2022-09-28T10:40:01.791Z,9.30
2022-09-28T10:41:01.869Z,8.90
2022-09-28T10:42:01.771Z,8.50
2022-09-28T10:43:01.756Z,9.10
2022-09-28T10:44:01.755Z,11.60
2022-09-28T10:45:01.986Z,11.50
2022-09-28T10:46:01.837Z,10.70
2022-09-28T10:47:01.727Z,10.30
2022-09-28T10:48:01.705Z,13.50
2022-09-28T10:49:01.727Z,10.80
2022-09-28T10:50:01.760Z,12.70
2022-09-28T10:51:01.694Z,12.40
2022-09-28T10:52:01.663Z,11.00
2022-09-28T10:53:01.645Z,14.80
2022-09-28T10:54:01.651Z,13.80
2022-09-28T10:55:01.725Z,12.30
2022-09-28T10:56:01.627Z,12.10
2022-09-28T10:57:01.604Z,11.40
2022-09-28T10:58:01.793Z,11.50
2022-09-28T10:59:01.582Z,12.40
2022-09-28T11:00:01.619Z,12.90
2022-09-28T11:01:01.949Z,12.90
2022-09-28T11:02:01.668Z,11.40
2022-09-28T11:03:01.584Z,15.30
2022-09-28T11:04:01.532Z,14.70
2022-09-28T11:05:01.517Z,12.80
2022-09-28T11:06:01.530Z,15.50
2022-09-28T11:07:01.628Z,12.10
2022-09-28T11:08:01.484Z,14.90
2022-09-28T11:09:01.474Z,13.40
2022-09-28T11:10:01.503Z,15.00
2022-09-28T11:11:01.450Z,13.00
2022-09-28T11:12:01.458Z,12.80
2022-09-28T11:13:01.430Z,11.00
2022-09-28T11:14:01.424Z,13.70
2022-09-28T11:15:01.409Z,11.70
2022-09-28T11:16:01.397Z,11.50
2022-09-28T11:17:01.575Z,13.80
2022-09-28T11:18:01.372Z,13.40
2022-09-28T11:19:01.409Z,12.60
2022-09-28T11:20:01.361Z,11.90
2022-09-28T11:21:01.338Z,13.20
2022-09-28T11:22:01.333Z,13.40
2022-09-28T11:23:01.352Z,13.10
2022-09-28T11:24:01.319Z,13.60
2022-09-28T11:25:01.300Z,13.70
2022-09-28T11:26:01.290Z,13.30
2022-09-28T11:27:01.278Z,12.10
2022-09-28T11:28:01.262Z,12.40
2022-09-28T11:29:01.296Z,11.70
2022-09-28T11:30:01.256Z,12.00
2022-09-28T11:31:01.377Z,13.10
2022-09-28T11:32:01.243Z,14.30
2022-09-28T11:33:01.207Z,12.40
2022-09-28T11:34:01.197Z,13.50
2022-09-28T11:35:01.203Z,12.00
2022-09-28T11:36:01.189Z,14.40
2022-09-28T11:37:01.966Z,13.70
2022-09-28T11:38:01.154Z,11.20
2022-09-28T11:39:01.180Z,11.30
2022-09-28T11:40:01.133Z,15.40
2022-09-28T11:41:01.211Z,12.20
2022-09-28T11:42:01.151Z,11.60
2022-09-28T11:43:01.149Z,10.80
2022-09-28T11:44:01.088Z,11.00
2022-09-28T11:45:01.073Z,13.40
2022-09-28T11:46:01.139Z,9.70
2022-09-28T11:47:01.057Z,11.00
2022-09-28T11:48:01.047Z,10.00
2022-09-28T11:49:01.040Z,11.20
2022-09-28T11:50:01.025Z,14.40
2022-09-28T11:51:01.012Z,12.00
2022-09-28T11:52:01.006Z,12.20
2022-09-28T11:53:01.007Z,10.80
2022-09-28T11:54:00.980Z,12.50
2022-09-28T11:55:00.991Z,11.60
2022-09-28T11:56:03.289Z,11.80
2022-09-28T11:57:00.951Z,10.70
2022-09-28T11:58:00.939Z,10.60
2022-09-28T11:59:00.926Z,9.90
2022-09-28T12:00:00.918Z,10.80
2022-09-28T12:01:00.907Z,12.80
2022-09-28T12:02:00.976Z,10.40
2022-09-28T12:03:01.067Z,10.80
2022-09-28T12:04:00.904Z,10.40
2022-09-28T12:05:00.866Z,12.10
2022-09-28T12:06:00.851Z,10.40
2022-09-28T12:07:00.846Z,11.10
2022-09-28T12:08:00.834Z,10.40
2022-09-28T12:09:00.819Z,11.90
2022-09-28T12:10:00.809Z,11.00
2022-09-28T12:11:00.835Z,10.10
2022-09-28T12:12:00.785Z,9.50
2022-09-28T12:13:00.771Z,10.50
2022-09-28T12:14:00.796Z,9.90
2022-09-28T12:15:00.791Z,13.10
2022-09-28T12:16:31.587Z,11.30
2022-09-28T12:17:07.626Z,10.70
2022-09-28T12:18:01.813Z,9.50
2022-09-28T12:20:00.697Z,9.60
2022-09-28T12:21:05.009Z,10.50
2022-09-28T12:22:00.675Z,10.70
2022-09-28T12:23:00.665Z,11.00
2022-09-28T12:24:00.652Z,10.30
2022-09-28T12:25:00.677Z,11.50
2022-09-28T12:26:00.675Z,9.50
2022-09-28T12:27:00.649Z,14.30
2022-09-28T12:28:00.613Z,10.20
2022-09-28T12:29:00.596Z,10.50
2022-09-28T12:30:00.582Z,9.90
2022-09-28T12:31:00.609Z,9.30
2022-09-28T12:32:00.565Z,9.50
2022-09-28T12:33:00.559Z,10.40
2022-09-28T12:34:00.563Z,10.10
2022-09-28T12:35:00.567Z,13.10
2022-09-28T12:36:00.639Z,9.70
2022-09-28T12:37:00.507Z,10.90
2022-09-28T12:38:00.496Z,8.90
2022-09-28T12:39:18.040Z,11.40
2022-09-28T12:40:01.941Z,10.10
2022-09-28T12:41:00.511Z,9.30
2022-09-28T12:42:00.456Z,10.20
2022-09-28T12:43:00.478Z,9.90
2022-09-28T12:44:00.435Z,11.60
2022-09-28T12:45:00.453Z,10.00
2022-09-28T12:46:11.667Z,9.10
2022-09-28T12:47:01.541Z,9.50
2022-09-28T12:48:00.392Z,10.20
2022-09-28T12:51:00.648Z,7.50
2022-09-28T12:52:00.344Z,9.00
2022-09-28T12:53:03.002Z,7.00
2022-09-28T12:54:00.322Z,9.40
2022-09-28T12:55:00.367Z,8.50
2022-09-28T12:56:00.301Z,8.30